sensor_id;sensor_type;location;lat;lon;timestamp;P1;durP1;ratioP1;P2;durP2;ratioP2
63201;SDS011;49296;48.188;11.566;2023-08-30T00:02:26;9.77;;;7.47;;
63201;SDS011;49296;48.188;11.566;2023-08-30T00:04:57;10.88;;;7.72;;
63201;SDS011;49296;48.188;11.566;2023-08-30T00:07:24;10.68;;;8.15;;
63201;SDS011;49296;48.188;11.566;2023-08-30T00:09:51;10.60;;;8.57;;
63201;SDS011;49296;48.188;11.566;2023-08-30T00:12:17;10.32;;;7.90;;
63201;SDS011;49296;48.188;11.566;2023-08-30T00:14:44;11.07;;;8.25;;
63201;SDS011;49296;48.188;11.566;2023-08-30T00:17:11;11.25;;;7.95;;
63201;SDS011;49296;48.188;11.566;2023-08-30T00:19:39;11.65;;;7.63;;
63201;SDS011;49296;48.188;11.566;2023-08-30T00:22:06;10.50;;;7.72;;
63201;SDS011;49296;48.188;11.566;2023-08-30T00:24:33;10.10;;;7.50;;
63201;SDS011;49296;48.188;11.566;2023-08-30T00:27:00;10.70;;;7.93;;
63201;SDS011;49296;48.188;11.566;2023-08-30T00:29:26;10.63;;;8.43;;
63201;SDS011;49296;48.188;11.566;2023-08-30T00:31:53;10.57;;;7.82;;
63201;SDS011;49296;48.188;11.566;2023-08-30T00:34:20;9.40;;;6.75;;
63201;SDS011;49296;48.188;11.566;2023-08-30T00:36:48;9.75;;;7.80;;
63201;SDS011;49296;48.188;11.566;2023-08-30T00:39:15;10.25;;;8.15;;
63201;SDS011;49296;48.188;11.566;2023-08-30T00:41:41;11.23;;;8.13;;
63201;SDS011;49296;48.188;11.566;2023-08-30T00:44:09;9.45;;;6.88;;
63201;SDS011;49296;48.188;11.566;2023-08-30T00:46:36;9.80;;;6.57;;
63201;SDS011;49296;48.188;11.566;2023-08-30T00:49:03;10.40;;;8.25;;
63201;SDS011;49296;48.188;11.566;2023-08-30T00:51:31;10.07;;;7.53;;
63201;SDS011;49296;48.188;11.566;2023-08-30T00:53:59;9.82;;;7.45;;
63201;SDS011;49296;48.188;11.566;2023-08-30T00:56:27;9.38;;;7.07;;
63201;SDS011;49296;48.188;11.566;2023-08-30T00:58:55;10.35;;;7.35;;
63201;SDS011;49296;48.188;11.566;2023-08-30T01:01:21;11.88;;;7.95;;
63201;SDS011;49296;48.188;11.566;2023-08-30T01:03:48;9.57;;;7.82;;
63201;SDS011;49296;48.188;11.566;2023-08-30T01:06:15;9.57;;;7.28;;
63201;SDS011;49296;48.188;11.566;2023-08-30T01:08:42;10.70;;;7.60;;
63201;SDS011;49296;48.188;11.566;2023-08-30T01:11:11;9.43;;;6.90;;
63201;SDS011;49296;48.188;11.566;2023-08-30T01:13:44;10.55;;;7.97;;
63201;SDS011;49296;48.188;11.566;2023-08-30T01:16:16;9.45;;;6.90;;
63201;SDS011;49296;48.188;11.566;2023-08-30T01:18:45;9.35;;;7.47;;
63201;SDS011;49296;48.188;11.566;2023-08-30T01:21:14;9.80;;;7.03;;
63201;SDS011;49296;48.188;11.566;2023-08-30T01:23:54;8.80;;;6.93;;
63201;SDS011;49296;48.188;11.566;2023-08-30T01:26:29;9.90;;;7.60;;
63201;SDS011;49296;48.188;11.566;2023-08-30T01:29:06;8.82;;;6.68;;
63201;SDS011;49296;48.188;11.566;2023-08-30T01:31:37;9.30;;;7.30;;
63201;SDS011;49296;48.188;11.566;2023-08-30T01:34:06;9.45;;;7.32;;
63201;SDS011;49296;48.188;11.566;2023-08-30T01:36:32;9.20;;;6.57;;
63201;SDS011;49296;48.188;11.566;2023-08-30T01:39:00;8.98;;;6.57;;
63201;SDS011;49296;48.188;11.566;2023-08-30T01:41:29;9.13;;;7.13;;
63201;SDS011;49296;48.188;11.566;2023-08-30T01:43:57;9.45;;;6.78;;
63201;SDS011;49296;48.188;11.566;2023-08-30T01:46:25;8.90;;;6.65;;
63201;SDS011;49296;48.188;11.566;2023-08-30T01:48:53;10.10;;;7.40;;
63201;SDS011;49296;48.188;11.566;2023-08-30T01:51:20;9.18;;;7.18;;
63201;SDS011;49296;48.188;11.566;2023-08-30T01:53:48;9.50;;;7.10;;
63201;SDS011;49296;48.188;11.566;2023-08-30T01:58:43;9.00;;;6.13;;
63201;SDS011;49296;48.188;11.566;2023-08-30T02:01:10;10.05;;;6.97;;
63201;SDS011;49296;48.188;11.566;2023-08-30T02:03:38;9.68;;;6.97;;
63201;SDS011;49296;48.188;11.566;2023-08-30T02:06:06;8.15;;;5.75;;
63201;SDS011;49296;48.188;11.566;2023-08-30T02:08:38;8.43;;;6.30;;
63201;SDS011;49296;48.188;11.566;2023-08-30T02:11:08;8.65;;;6.30;;
63201;SDS011;49296;48.188;11.566;2023-08-30T02:13:39;8.43;;;5.85;;
63201;SDS011;49296;48.188;11.566;2023-08-30T02:16:08;7.43;;;5.28;;
63201;SDS011;49296;48.188;11.566;2023-08-30T02:18:37;8.02;;;5.90;;
63201;SDS011;49296;48.188;11.566;2023-08-30T02:21:06;8.50;;;6.13;;
63201;SDS011;49296;48.188;11.566;2023-08-30T02:23:32;8.93;;;6.68;;
63201;SDS011;49296;48.188;11.566;2023-08-30T02:25:59;7.10;;;5.93;;
63201;SDS011;49296;48.188;11.566;2023-08-30T02:28:28;8.27;;;6.32;;
63201;SDS011;49296;48.188;11.566;2023-08-30T02:30:55;8.50;;;6.03;;
63201;SDS011;49296;48.188;11.566;2023-08-30T02:33:21;8.85;;;6.90;;
63201;SDS011;49296;48.188;11.566;2023-08-30T02:35:49;8.15;;;6.20;;
63201;SDS011;49296;48.188;11.566;2023-08-30T02:38:16;7.53;;;6.03;;
63201;SDS011;49296;48.188;11.566;2023-08-30T02:40:42;7.85;;;6.13;;
63201;SDS011;49296;48.188;11.566;2023-08-30T02:43:09;7.53;;;6.25;;
63201;SDS011;49296;48.188;11.566;2023-08-30T02:45:35;8.15;;;6.00;;
63201;SDS011;49296;48.188;11.566;2023-08-30T02:48:02;8.40;;;6.07;;
63201;SDS011;49296;48.188;11.566;2023-08-30T02:50:29;9.25;;;6.13;;
63201;SDS011;49296;48.188;11.566;2023-08-30T02:52:57;7.50;;;5.70;;
63201;SDS011;49296;48.188;11.566;2023-08-30T02:55:24;8.45;;;6.50;;
63201;SDS011;49296;48.188;11.566;2023-08-30T02:57:51;8.90;;;6.35;;
63201;SDS011;49296;48.188;11.566;2023-08-30T03:00:17;7.82;;;5.97;;
63201;SDS011;49296;48.188;11.566;2023-08-30T03:02:44;9.48;;;6.38;;
63201;SDS011;49296;48.188;11.566;2023-08-30T03:05:11;7.53;;;5.60;;
63201;SDS011;49296;48.188;11.566;2023-08-30T03:07:38;7.35;;;5.63;;
63201;SDS011;49296;48.188;11.566;2023-08-30T03:10:06;8.95;;;6.22;;
63201;SDS011;49296;48.188;11.566;2023-08-30T03:12:33;7.72;;;5.70;;
63201;SDS011;49296;48.188;11.566;2023-08-30T03:15:00;10.88;;;6.07;;
63201;SDS011;49296;48.188;11.566;2023-08-30T03:17:26;8.63;;;6.68;;
63201;SDS011;49296;48.188;11.566;2023-08-30T03:19:53;8.52;;;6.35;;
63201;SDS011;49296;48.188;11.566;2023-08-30T03:22:20;8.10;;;6.05;;
63201;SDS011;49296;48.188;11.566;2023-08-30T03:24:46;7.90;;;5.90;;
63201;SDS011;49296;48.188;11.566;2023-08-30T03:27:15;9.07;;;6.15;;
63201;SDS011;49296;48.188;11.566;2023-08-30T03:29:44;7.63;;;5.57;;
63201;SDS011;49296;48.188;11.566;2023-08-30T03:32:13;7.95;;;5.82;;
63201;SDS011;49296;48.188;11.566;2023-08-30T03:34:43;7.75;;;6.10;;
63201;SDS011;49296;48.188;11.566;2023-08-30T03:37:10;7.93;;;6.05;;
63201;SDS011;49296;48.188;11.566;2023-08-30T03:39:37;8.27;;;5.75;;
63201;SDS011;49296;48.188;11.566;2023-08-30T03:42:04;7.45;;;5.35;;
63201;SDS011;49296;48.188;11.566;2023-08-30T03:44:32;7.93;;;5.72;;
63201;SDS011;49296;48.188;11.566;2023-08-30T03:46:59;7.72;;;5.70;;
63201;SDS011;49296;48.188;11.566;2023-08-30T03:49:25;8.38;;;5.82;;
63201;SDS011;49296;48.188;11.566;2023-08-30T03:51:52;8.48;;;5.70;;
63201;SDS011;49296;48.188;11.566;2023-08-30T03:54:18;8.85;;;5.90;;
63201;SDS011;49296;48.188;11.566;2023-08-30T03:56:45;7.00;;;5.55;;
63201;SDS011;49296;48.188;11.566;2023-08-30T03:59:12;8.60;;;5.95;;
63201;SDS011;49296;48.188;11.566;2023-08-30T04:01:40;9.10;;;5.70;;
63201;SDS011;49296;48.188;11.566;2023-08-30T04:04:06;9.05;;;5.90;;
63201;SDS011;49296;48.188;11.566;2023-08-30T04:06:33;7.30;;;5.43;;
63201;SDS011;49296;48.188;11.566;2023-08-30T04:08:59;7.28;;;5.70;;
63201;SDS011;49296;48.188;11.566;2023-08-30T04:11:26;8.43;;;5.63;;
63201;SDS011;49296;48.188;11.566;2023-08-30T04:13:53;8.32;;;6.55;;
63201;SDS011;49296;48.188;11.566;2023-08-30T04:16:19;8.95;;;6.63;;
63201;SDS011;49296;48.188;11.566;2023-08-30T04:18:47;8.35;;;6.03;;
63201;SDS011;49296;48.188;11.566;2023-08-30T04:21:14;8.50;;;5.65;;
63201;SDS011;49296;48.188;11.566;2023-08-30T04:23:40;7.72;;;5.78;;
63201;SDS011;49296;48.188;11.566;2023-08-30T04:26:07;6.78;;;5.25;;
63201;SDS011;49296;48.188;11.566;2023-08-30T04:28:34;7.88;;;6.07;;
63201;SDS011;49296;48.188;11.566;2023-08-30T04:31:00;7.57;;;5.50;;
63201;SDS011;49296;48.188;11.566;2023-08-30T04:33:27;7.55;;;5.90;;
63201;SDS011;49296;48.188;11.566;2023-08-30T04:35:55;7.28;;;5.45;;
63201;SDS011;49296;48.188;11.566;2023-08-30T04:38:22;7.25;;;5.10;;
63201;SDS011;49296;48.188;11.566;2023-08-30T04:40:49;8.15;;;5.57;;
63201;SDS011;49296;48.188;11.566;2023-08-30T04:43:15;7.40;;;5.72;;
63201;SDS011;49296;48.188;11.566;2023-08-30T04:45:42;8.27;;;5.50;;
63201;SDS011;49296;48.188;11.566;2023-08-30T04:48:09;8.18;;;5.78;;
63201;SDS011;49296;48.188;11.566;2023-08-30T04:50:35;8.23;;;5.70;;
63201;SDS011;49296;48.188;11.566;2023-08-30T04:53:04;8.38;;;6.07;;
63201;SDS011;49296;48.188;11.566;2023-08-30T04:55:30;8.43;;;5.53;;
63201;SDS011;49296;48.188;11.566;2023-08-30T04:57:57;7.90;;;5.53;;
63201;SDS011;49296;48.188;11.566;2023-08-30T05:00:24;8.02;;;5.97;;
63201;SDS011;49296;48.188;11.566;2023-08-30T05:02:50;8.07;;;5.78;;
63201;SDS011;49296;48.188;11.566;2023-08-30T05:05:17;8.63;;;6.20;;
63201;SDS011;49296;48.188;11.566;2023-08-30T05:07:43;8.48;;;6.00;;
63201;SDS011;49296;48.188;11.566;2023-08-30T05:10:11;8.98;;;6.75;;
63201;SDS011;49296;48.188;11.566;2023-08-30T05:12:38;8.93;;;6.60;;
63201;SDS011;49296;48.188;11.566;2023-08-30T05:15:06;9.88;;;6.82;;
63201;SDS011;49296;48.188;11.566;2023-08-30T05:17:33;9.05;;;6.55;;
63201;SDS011;49296;48.188;11.566;2023-08-30T05:19:59;8.30;;;6.05;;
63201;SDS011;49296;48.188;11.566;2023-08-30T05:22:26;8.65;;;6.60;;
63201;SDS011;49296;48.188;11.566;2023-08-30T05:24:53;8.05;;;5.93;;
63201;SDS011;49296;48.188;11.566;2023-08-30T05:27:20;9.23;;;6.15;;
63201;SDS011;49296;48.188;11.566;2023-08-30T05:29:47;8.85;;;6.70;;
63201;SDS011;49296;48.188;11.566;2023-08-30T05:32:14;8.38;;;6.38;;
63201;SDS011;49296;48.188;11.566;2023-08-30T05:34:40;7.80;;;5.47;;
63201;SDS011;49296;48.188;11.566;2023-08-30T05:37:07;7.75;;;5.53;;
63201;SDS011;49296;48.188;11.566;2023-08-30T05:39:33;10.02;;;6.45;;
63201;SDS011;49296;48.188;11.566;2023-08-30T05:42:00;7.68;;;6.53;;
63201;SDS011;49296;48.188;11.566;2023-08-30T05:44:29;8.00;;;6.00;;
63201;SDS011;49296;48.188;11.566;2023-08-30T05:46:55;8.68;;;6.05;;
63201;SDS011;49296;48.188;11.566;2023-08-30T05:49:22;7.30;;;5.45;;
63201;SDS011;49296;48.188;11.566;2023-08-30T05:51:49;8.43;;;6.22;;
63201;SDS011;49296;48.188;11.566;2023-08-30T05:54:15;7.57;;;5.75;;
63201;SDS011;49296;48.188;11.566;2023-08-30T05:56:42;8.45;;;5.65;;
63201;SDS011;49296;48.188;11.566;2023-08-30T05:59:09;8.55;;;5.93;;
63201;SDS011;49296;48.188;11.566;2023-08-30T06:01:37;7.60;;;5.40;;
63201;SDS011;49296;48.188;11.566;2023-08-30T06:04:03;8.75;;;5.93;;
63201;SDS011;49296;48.188;11.566;2023-08-30T06:06:30;8.73;;;5.60;;
63201;SDS011;49296;48.188;11.566;2023-08-30T06:08:57;7.07;;;5.43;;
63201;SDS011;49296;48.188;11.566;2023-08-30T06:11:24;8.15;;;6.13;;
63201;SDS011;49296;48.188;11.566;2023-08-30T06:13:50;7.55;;;5.63;;
63201;SDS011;49296;48.188;11.566;2023-08-30T06:16:17;8.18;;;5.65;;
63201;SDS011;49296;48.188;11.566;2023-08-30T06:18:45;7.78;;;5.93;;
63201;SDS011;49296;48.188;11.566;2023-08-30T06:21:12;7.57;;;5.60;;
63201;SDS011;49296;48.188;11.566;2023-08-30T06:23:38;8.30;;;5.80;;
63201;SDS011;49296;48.188;11.566;2023-08-30T06:26:05;8.18;;;5.82;;
63201;SDS011;49296;48.188;11.566;2023-08-30T06:28:31;8.30;;;5.38;;
63201;SDS011;49296;48.188;11.566;2023-08-30T06:30:58;8.98;;;5.55;;
63201;SDS011;49296;48.188;11.566;2023-08-30T06:33:24;8.75;;;5.95;;
63201;SDS011;49296;48.188;11.566;2023-08-30T06:35:52;8.82;;;5.68;;
63201;SDS011;49296;48.188;11.566;2023-08-30T06:38:21;8.13;;;6.13;;
63201;SDS011;49296;48.188;11.566;2023-08-30T06:40:47;7.75;;;5.60;;
63201;SDS011;49296;48.188;11.566;2023-08-30T06:43:14;7.18;;;5.40;;
63201;SDS011;49296;48.188;11.566;2023-08-30T06:45:41;7.75;;;6.15;;
63201;SDS011;49296;48.188;11.566;2023-08-30T06:48:07;8.13;;;5.60;;
63201;SDS011;49296;48.188;11.566;2023-08-30T06:50:34;8.80;;;5.75;;
63201;SDS011;49296;48.188;11.566;2023-08-30T06:53:02;8.02;;;6.32;;
63201;SDS011;49296;48.188;11.566;2023-08-30T06:55:29;7.85;;;5.50;;
63201;SDS011;49296;48.188;11.566;2023-08-30T06:57:56;9.18;;;6.55;;
63201;SDS011;49296;48.188;11.566;2023-08-30T07:00:23;8.60;;;6.22;;
63201;SDS011;49296;48.188;11.566;2023-08-30T07:02:49;7.78;;;5.65;;
63201;SDS011;49296;48.188;11.566;2023-08-30T07:05:16;7.85;;;5.75;;
63201;SDS011;49296;48.188;11.566;2023-08-30T07:07:43;7.22;;;5.20;;
63201;SDS011;49296;48.188;11.566;2023-08-30T07:10:11;6.88;;;4.90;;
63201;SDS011;49296;48.188;11.566;2023-08-30T07:12:37;6.95;;;5.57;;
63201;SDS011;49296;48.188;11.566;2023-08-30T07:15:04;6.85;;;5.30;;
63201;SDS011;49296;48.188;11.566;2023-08-30T07:17:32;7.63;;;5.50;;
63201;SDS011;49296;48.188;11.566;2023-08-30T07:19:58;7.60;;;5.82;;
63201;SDS011;49296;48.188;11.566;2023-08-30T07:22:26;7.30;;;5.57;;
63201;SDS011;49296;48.188;11.566;2023-08-30T07:24:52;9.55;;;6.63;;
63201;SDS011;49296;48.188;11.566;2023-08-30T07:27:20;9.98;;;6.80;;
63201;SDS011;49296;48.188;11.566;2023-08-30T07:29:47;7.72;;;6.15;;
63201;SDS011;49296;48.188;11.566;2023-08-30T07:32:13;8.60;;;6.13;;
63201;SDS011;49296;48.188;11.566;2023-08-30T07:34:40;9.02;;;6.10;;
63201;SDS011;49296;48.188;11.566;2023-08-30T07:37:16;8.88;;;6.78;;
63201;SDS011;49296;48.188;11.566;2023-08-30T07:39:43;8.85;;;6.40;;
63201;SDS011;49296;48.188;11.566;2023-08-30T07:42:10;8.32;;;6.20;;
63201;SDS011;49296;48.188;11.566;2023-08-30T07:44:38;10.98;;;7.50;;
63201;SDS011;49296;48.188;11.566;2023-08-30T07:47:04;8.20;;;6.30;;
63201;SDS011;49296;48.188;11.566;2023-08-30T07:49:31;8.93;;;6.78;;
63201;SDS011;49296;48.188;11.566;2023-08-30T07:51:57;8.68;;;7.00;;
63201;SDS011;49296;48.188;11.566;2023-08-30T07:54:24;9.38;;;6.07;;
63201;SDS011;49296;48.188;11.566;2023-08-30T07:56:50;9.65;;;6.78;;
63201;SDS011;49296;48.188;11.566;2023-08-30T07:59:17;8.95;;;6.35;;
63201;SDS011;49296;48.188;11.566;2023-08-30T08:01:45;7.55;;;6.07;;
63201;SDS011;49296;48.188;11.566;2023-08-30T08:04:12;9.90;;;6.68;;
63201;SDS011;49296;48.188;11.566;2023-08-30T08:06:38;9.13;;;7.05;;
63201;SDS011;49296;48.188;11.566;2023-08-30T08:09:05;8.63;;;6.70;;
63201;SDS011;49296;48.188;11.566;2023-08-30T08:11:32;8.00;;;6.57;;
63201;SDS011;49296;48.188;11.566;2023-08-30T08:13:59;8.82;;;6.85;;
63201;SDS011;49296;48.188;11.566;2023-08-30T08:16:26;8.93;;;7.38;;
63201;SDS011;49296;48.188;11.566;2023-08-30T08:18:53;9.18;;;6.80;;
63201;SDS011;49296;48.188;11.566;2023-08-30T08:21:20;10.63;;;7.47;;
63201;SDS011;49296;48.188;11.566;2023-08-30T08:23:47;10.35;;;6.97;;
63201;SDS011;49296;48.188;11.566;2023-08-30T08:26:14;10.50;;;7.28;;
63201;SDS011;49296;48.188;11.566;2023-08-30T08:28:41;8.63;;;6.30;;
63201;SDS011;49296;48.188;11.566;2023-08-30T08:31:07;10.20;;;7.43;;
63201;SDS011;49296;48.188;11.566;2023-08-30T08:33:34;8.60;;;6.88;;
63201;SDS011;49296;48.188;11.566;2023-08-30T08:36:02;9.82;;;7.60;;
63201;SDS011;49296;48.188;11.566;2023-08-30T08:38:29;9.93;;;7.60;;
63201;SDS011;49296;48.188;11.566;2023-08-30T08:41:00;9.73;;;8.05;;
63201;SDS011;49296;48.188;11.566;2023-08-30T08:43:28;9.88;;;7.68;;
63201;SDS011;49296;48.188;11.566;2023-08-30T08:45:56;10.57;;;8.60;;
63201;SDS011;49296;48.188;11.566;2023-08-30T08:48:27;10.02;;;8.02;;
63201;SDS011;49296;48.188;11.566;2023-08-30T08:50:55;8.43;;;6.90;;
63201;SDS011;49296;48.188;11.566;2023-08-30T08:53:24;9.50;;;7.03;;
63201;SDS011;49296;48.188;11.566;2023-08-30T08:55:50;9.95;;;8.20;;
63201;SDS011;49296;48.188;11.566;2023-08-30T08:58:18;8.20;;;6.82;;
63201;SDS011;49296;48.188;11.566;2023-08-30T09:00:45;10.32;;;8.77;;
63201;SDS011;49296;48.188;11.566;2023-08-30T09:03:11;8.60;;;7.22;;
63201;SDS011;49296;48.188;11.566;2023-08-30T09:05:38;9.18;;;6.70;;
63201;SDS011;49296;48.188;11.566;2023-08-30T09:08:06;8.15;;;6.90;;
63201;SDS011;49296;48.188;11.566;2023-08-30T09:10:34;8.43;;;7.03;;
63201;SDS011;49296;48.188;11.566;2023-08-30T09:13:01;8.48;;;7.05;;
63201;SDS011;49296;48.188;11.566;2023-08-30T09:15:30;9.10;;;7.32;;
63201;SDS011;49296;48.188;11.566;2023-08-30T09:17:57;9.45;;;7.53;;
63201;SDS011;49296;48.188;11.566;2023-08-30T09:20:24;7.85;;;6.07;;
63201;SDS011;49296;48.188;11.566;2023-08-30T09:22:51;7.65;;;6.38;;
63201;SDS011;49296;48.188;11.566;2023-08-30T09:25:24;8.77;;;6.57;;
63201;SDS011;49296;48.188;11.566;2023-08-30T09:27:57;7.57;;;6.47;;
63201;SDS011;49296;48.188;11.566;2023-08-30T09:30:25;6.45;;;5.47;;
63201;SDS011;49296;48.188;11.566;2023-08-30T09:32:52;6.40;;;5.03;;
63201;SDS011;49296;48.188;11.566;2023-08-30T09:35:19;8.38;;;5.47;;
63201;SDS011;49296;48.188;11.566;2023-08-30T09:37:45;6.72;;;5.05;;
63201;SDS011;49296;48.188;11.566;2023-08-30T09:40:17;7.38;;;5.03;;
63201;SDS011;49296;48.188;11.566;2023-08-30T09:42:44;6.97;;;4.50;;
63201;SDS011;49296;48.188;11.566;2023-08-30T09:45:19;5.10;;;4.10;;
63201;SDS011;49296;48.188;11.566;2023-08-30T09:47:47;5.47;;;4.40;;
63201;SDS011;49296;48.188;11.566;2023-08-30T09:50:15;5.43;;;4.07;;
63201;SDS011;49296;48.188;11.566;2023-08-30T09:52:43;5.40;;;4.03;;
63201;SDS011;49296;48.188;11.566;2023-08-30T09:55:11;3.78;;;2.70;;
63201;SDS011;49296;48.188;11.566;2023-08-30T09:57:38;4.32;;;2.92;;
63201;SDS011;49296;48.188;11.566;2023-08-30T10:00:06;5.63;;;3.70;;
63201;SDS011;49296;48.188;11.566;2023-08-30T10:02:35;4.72;;;3.67;;
63201;SDS011;49296;48.188;11.566;2023-08-30T10:05:02;4.78;;;3.17;;
63201;SDS011;49296;48.188;11.566;2023-08-30T10:07:30;5.10;;;3.42;;
63201;SDS011;49296;48.188;11.566;2023-08-30T10:09:57;5.65;;;3.63;;
63201;SDS011;49296;48.188;11.566;2023-08-30T10:12:25;5.78;;;4.10;;
63201;SDS011;49296;48.188;11.566;2023-08-30T10:14:52;4.82;;;3.65;;
63201;SDS011;49296;48.188;11.566;2023-08-30T10:17:19;4.72;;;3.30;;
63201;SDS011;49296;48.188;11.566;2023-08-30T10:19:50;4.70;;;3.20;;
63201;SDS011;49296;48.188;11.566;2023-08-30T10:22:18;6.77;;;3.77;;
63201;SDS011;49296;48.188;11.566;2023-08-30T10:24:46;4.00;;;3.05;;
63201;SDS011;49296;48.188;11.566;2023-08-30T10:27:17;4.22;;;3.15;;
63201;SDS011;49296;48.188;11.566;2023-08-30T10:29:46;4.78;;;3.10;;
63201;SDS011;49296;48.188;11.566;2023-08-30T10:32:18;4.63;;;3.08;;
63201;SDS011;49296;48.188;11.566;2023-08-30T10:34:47;4.60;;;3.50;;
63201;SDS011;49296;48.188;11.566;2023-08-30T10:37:15;4.47;;;3.35;;
63201;SDS011;49296;48.188;11.566;2023-08-30T10:39:47;4.82;;;3.20;;
63201;SDS011;49296;48.188;11.566;2023-08-30T10:42:15;4.72;;;3.55;;
63201;SDS011;49296;48.188;11.566;2023-08-30T10:44:48;4.95;;;4.00;;
63201;SDS011;49296;48.188;11.566;2023-08-30T10:47:18;4.72;;;3.25;;
63201;SDS011;49296;48.188;11.566;2023-08-30T10:49:46;4.57;;;3.50;;
63201;SDS011;49296;48.188;11.566;2023-08-30T10:52:13;5.20;;;3.60;;
63201;SDS011;49296;48.188;11.566;2023-08-30T10:54:41;5.47;;;3.50;;
63201;SDS011;49296;48.188;11.566;2023-08-30T10:57:12;4.38;;;3.15;;
63201;SDS011;49296;48.188;11.566;2023-08-30T10:59:39;3.88;;;3.05;;
63201;SDS011;49296;48.188;11.566;2023-08-30T11:02:06;5.32;;;3.28;;
63201;SDS011;49296;48.188;11.566;2023-08-30T11:04:34;4.50;;;3.08;;
63201;SDS011;49296;48.188;11.566;2023-08-30T11:07:06;5.32;;;2.90;;
63201;SDS011;49296;48.188;11.566;2023-08-30T11:09:33;3.95;;;2.90;;
63201;SDS011;49296;48.188;11.566;2023-08-30T11:12:04;3.80;;;2.85;;
63201;SDS011;49296;48.188;11.566;2023-08-30T11:14:31;3.88;;;2.53;;
63201;SDS011;49296;48.188;11.566;2023-08-30T11:16:58;3.92;;;2.53;;
63201;SDS011;49296;48.188;11.566;2023-08-30T11:19:29;3.22;;;2.42;;
63201;SDS011;49296;48.188;11.566;2023-08-30T11:21:56;5.20;;;2.40;;
63201;SDS011;49296;48.188;11.566;2023-08-30T11:24:23;3.30;;;2.28;;
63201;SDS011;49296;48.188;11.566;2023-08-30T11:26:52;3.47;;;2.20;;
63201;SDS011;49296;48.188;11.566;2023-08-30T11:29:20;5.70;;;3.00;;
63201;SDS011;49296;48.188;11.566;2023-08-30T11:31:47;4.05;;;2.00;;
63201;SDS011;49296;48.188;11.566;2023-08-30T11:34:15;4.00;;;2.50;;
63201;SDS011;49296;48.188;11.566;2023-08-30T11:36:46;3.25;;;2.30;;
63201;SDS011;49296;48.188;11.566;2023-08-30T11:39:13;3.50;;;2.10;;
63201;SDS011;49296;48.188;11.566;2023-08-30T11:41:40;3.00;;;2.08;;
63201;SDS011;49296;48.188;11.566;2023-08-30T11:44:08;4.22;;;2.33;;
63201;SDS011;49296;48.188;11.566;2023-08-30T11:46:36;4.75;;;2.40;;
63201;SDS011;49296;48.188;11.566;2023-08-30T11:49:03;4.07;;;2.50;;
63201;SDS011;49296;48.188;11.566;2023-08-30T11:51:30;2.78;;;1.95;;
63201;SDS011;49296;48.188;11.566;2023-08-30T11:53:57;3.42;;;2.28;;
63201;SDS011;49296;48.188;11.566;2023-08-30T11:56:27;2.95;;;2.00;;
63201;SDS011;49296;48.188;11.566;2023-08-30T11:58:54;4.00;;;2.47;;
63201;SDS011;49296;48.188;11.566;2023-08-30T12:01:20;3.17;;;2.30;;
63201;SDS011;49296;48.188;11.566;2023-08-30T12:03:49;3.22;;;2.20;;
63201;SDS011;49296;48.188;11.566;2023-08-30T12:06:16;3.88;;;2.10;;
63201;SDS011;49296;48.188;11.566;2023-08-30T12:08:43;4.03;;;2.25;;
63201;SDS011;49296;48.188;11.566;2023-08-30T12:11:17;3.80;;;2.50;;
63201;SDS011;49296;48.188;11.566;2023-08-30T12:13:44;3.80;;;2.88;;
63201;SDS011;49296;48.188;11.566;2023-08-30T12:16:14;3.67;;;1.98;;
63201;SDS011;49296;48.188;11.566;2023-08-30T12:18:42;3.88;;;2.10;;
63201;SDS011;49296;48.188;11.566;2023-08-30T12:21:10;3.17;;;2.08;;
63201;SDS011;49296;48.188;11.566;2023-08-30T12:23:39;3.70;;;2.50;;
63201;SDS011;49296;48.188;11.566;2023-08-30T12:26:06;3.92;;;2.33;;
63201;SDS011;49296;48.188;11.566;2023-08-30T12:28:34;4.40;;;2.45;;
63201;SDS011;49296;48.188;11.566;2023-08-30T12:31:02;2.92;;;2.15;;
63201;SDS011;49296;48.188;11.566;2023-08-30T12:33:29;3.83;;;2.30;;
63201;SDS011;49296;48.188;11.566;2023-08-30T12:35:57;3.88;;;2.65;;
63201;SDS011;49296;48.188;11.566;2023-08-30T12:38:26;2.83;;;1.88;;
63201;SDS011;49296;48.188;11.566;2023-08-30T12:40:54;5.45;;;2.10;;
63201;SDS011;49296;48.188;11.566;2023-08-30T12:43:22;3.75;;;1.65;;
63201;SDS011;49296;48.188;11.566;2023-08-30T12:45:49;3.67;;;2.15;;
63201;SDS011;49296;48.188;11.566;2023-08-30T12:48:16;2.90;;;2.03;;
63201;SDS011;49296;48.188;11.566;2023-08-30T12:50:44;3.05;;;1.60;;
63201;SDS011;49296;48.188;11.566;2023-08-30T12:53:12;2.83;;;1.70;;
63201;SDS011;49296;48.188;11.566;2023-08-30T12:55:40;2.70;;;1.85;;
63201;SDS011;49296;48.188;11.566;2023-08-30T12:58:07;2.53;;;1.70;;
63201;SDS011;49296;48.188;11.566;2023-08-30T13:00:34;3.20;;;1.70;;
63201;SDS011;49296;48.188;11.566;2023-08-30T13:03:01;3.03;;;1.80;;
63201;SDS011;49296;48.188;11.566;2023-08-30T13:05:28;2.50;;;1.67;;
63201;SDS011;49296;48.188;11.566;2023-08-30T13:07:57;27.38;;;12.32;;
63201;SDS011;49296;48.188;11.566;2023-08-30T13:10:23;15.18;;;8.20;;
63201;SDS011;49296;48.188;11.566;2023-08-30T13:12:51;32.05;;;16.65;;
63201;SDS011;49296;48.188;11.566;2023-08-30T13:15:18;14.02;;;8.00;;
63201;SDS011;49296;48.188;11.566;2023-08-30T13:17:45;13.30;;;8.55;;
63201;SDS011;49296;48.188;11.566;2023-08-30T13:20:11;25.15;;;13.25;;
63201;SDS011;49296;48.188;11.566;2023-08-30T13:22:38;11.52;;;6.20;;
63201;SDS011;49296;48.188;11.566;2023-08-30T13:25:05;15.73;;;8.60;;
63201;SDS011;49296;48.188;11.566;2023-08-30T13:27:32;11.75;;;6.05;;
63201;SDS011;49296;48.188;11.566;2023-08-30T13:30:01;40.13;;;19.98;;
63201;SDS011;49296;48.188;11.566;2023-08-30T13:32:27;16.25;;;8.68;;
63201;SDS011;49296;48.188;11.566;2023-08-30T13:34:54;9.63;;;4.85;;
63201;SDS011;49296;48.188;11.566;2023-08-30T13:37:20;15.25;;;8.35;;
63201;SDS011;49296;48.188;11.566;2023-08-30T13:39:48;9.57;;;5.53;;
63201;SDS011;49296;48.188;11.566;2023-08-30T13:42:15;6.25;;;4.50;;
63201;SDS011;49296;48.188;11.566;2023-08-30T13:44:41;7.78;;;4.57;;
63201;SDS011;49296;48.188;11.566;2023-08-30T13:47:10;6.53;;;3.80;;
63201;SDS011;49296;48.188;11.566;2023-08-30T13:49:37;11.27;;;6.80;;
63201;SDS011;49296;48.188;11.566;2023-08-30T13:52:03;5.22;;;3.47;;
63201;SDS011;49296;48.188;11.566;2023-08-30T13:54:30;7.20;;;4.93;;
63201;SDS011;49296;48.188;11.566;2023-08-30T13:56:57;7.68;;;4.15;;
63201;SDS011;49296;48.188;11.566;2023-08-30T13:59:24;11.70;;;6.43;;
63201;SDS011;49296;48.188;11.566;2023-08-30T14:01:50;7.32;;;4.40;;
63201;SDS011;49296;48.188;11.566;2023-08-30T14:04:18;5.85;;;3.70;;
63201;SDS011;49296;48.188;11.566;2023-08-30T14:06:45;6.63;;;3.72;;
63201;SDS011;49296;48.188;11.566;2023-08-30T14:09:11;6.63;;;4.18;;
63201;SDS011;49296;48.188;11.566;2023-08-30T14:11:38;8.52;;;4.68;;
63201;SDS011;49296;48.188;11.566;2023-08-30T14:14:06;12.48;;;7.25;;
63201;SDS011;49296;48.188;11.566;2023-08-30T14:16:33;6.10;;;3.55;;
63201;SDS011;49296;48.188;11.566;2023-08-30T14:19:01;7.47;;;3.88;;
63201;SDS011;49296;48.188;11.566;2023-08-30T14:21:32;8.52;;;4.40;;
63201;SDS011;49296;48.188;11.566;2023-08-30T14:23:58;5.88;;;3.00;;
63201;SDS011;49296;48.188;11.566;2023-08-30T14:26:25;7.93;;;4.03;;
63201;SDS011;49296;48.188;11.566;2023-08-30T14:28:52;4.53;;;2.97;;
63201;SDS011;49296;48.188;11.566;2023-08-30T14:31:19;5.50;;;3.05;;
63201;SDS011;49296;48.188;11.566;2023-08-30T14:33:45;6.78;;;2.90;;
63201;SDS011;49296;48.188;11.566;2023-08-30T14:36:12;7.25;;;2.80;;
63201;SDS011;49296;48.188;11.566;2023-08-30T14:38:42;4.70;;;2.60;;